createdAt,value
2019-02-27T00:00:15.509Z,99775.14
2019-02-27T00:02:48.550Z,99777.89
2019-02-27T00:05:21.637Z,99774.41
2019-02-27T00:07:54.847Z,99768.09
2019-02-27T00:10:28.896Z,99763.70
2019-02-27T00:13:02.258Z,99754.90
2019-02-27T00:15:37.740Z,99761.38
2019-02-27T00:18:10.189Z,99755.03
2019-02-27T00:20:43.803Z,99752.97
2019-02-27T00:23:17.235Z,99757.67
2019-02-27T00:25:50.004Z,99758.53
2019-02-27T00:28:23.891Z,99754.41
2019-02-27T00:30:57.587Z,99749.17
2019-02-27T00:33:29.315Z,99743.49
2019-02-27T00:36:02.012Z,99744.99
2019-02-27T00:38:34.692Z,99742.70
2019-02-27T00:41:12.046Z,99740.65
2019-02-27T00:43:42.117Z,99744.26
2019-02-27T00:46:15.274Z,99749.49
2019-02-27T00:48:48.472Z,99743.38
2019-02-27T00:51:22.193Z,99748.86
2019-02-27T00:53:55.933Z,99743.50
2019-02-27T00:56:31.998Z,99744.11
2019-02-27T00:59:04.691Z,99740.22
2019-02-27T01:01:37.888Z,99738.70
2019-02-27T01:04:11.138Z,99733.02
2019-02-27T01:06:45.059Z,99728.31
2019-02-27T01:09:20.378Z,99725.61
2019-02-27T01:11:53.749Z,99727.91
2019-02-27T01:14:26.232Z,99728.38
2019-02-27T01:16:59.099Z,99726.01
2019-02-27T01:19:32.665Z,99722.51
2019-02-27T01:22:05.598Z,99721.02
2019-02-27T01:24:38.657Z,99716.10
2019-02-27T01:27:11.813Z,99722.83
2019-02-27T01:29:45.690Z,99718.46
2019-02-27T01:32:19.588Z,99715.66
2019-02-27T01:34:53.106Z,99719.97
2019-02-27T01:37:25.964Z,99715.30
2019-02-27T01:39:58.707Z,99713.61
2019-02-27T01:42:32.973Z,99706.78
2019-02-27T01:45:09.241Z,99704.47
2019-02-27T01:47:43.129Z,99703.92
2019-02-27T01:50:34.131Z,99710.00
2019-02-27T01:53:09.075Z,99704.08
2019-02-27T01:55:41.858Z,99703.48
2019-02-27T01:58:14.611Z,99700.09
2019-02-27T02:00:48.152Z,99689.86
2019-02-27T02:03:21.497Z,99687.30
2019-02-27T02:05:58.843Z,99689.14
2019-02-27T02:08:29.212Z,99683.16
2019-02-27T02:11:02.129Z,99673.74
2019-02-27T02:13:53.787Z,99676.55
2019-02-27T02:16:47.223Z,99674.81
2019-02-27T02:19:48.781Z,99677.69
2019-02-27T02:23:20.548Z,99674.31
2019-02-27T02:26:43.849Z,99671.66
2019-02-27T02:30:07.470Z,99679.44
2019-02-27T02:33:31.053Z,99676.02
2019-02-27T02:37:03.805Z,99670.02
2019-02-27T02:40:04.512Z,99672.91
2019-02-27T02:43:41.575Z,99675.38
2019-02-27T02:46:55.061Z,99676.68
2019-02-27T02:50:29.045Z,99668.45
2019-02-27T02:54:01.728Z,99663.92
2019-02-27T02:57:05.084Z,99660.34
2019-02-27T03:00:27.237Z,99659.31
2019-02-27T03:04:06.036Z,99653.53
2019-02-27T03:07:30.677Z,99657.02
2019-02-27T03:10:20.943Z,99653.00
2019-02-27T03:13:47.365Z,99648.59
2019-02-27T03:17:53.695Z,99650.16
2019-02-27T03:21:27.376Z,99654.89
2019-02-27T03:24:50.787Z,99644.13
2019-02-27T03:28:27.172Z,99648.10
2019-02-27T03:31:42.341Z,99642.27
2019-02-27T03:35:18.354Z,99639.92
2019-02-27T03:38:24.099Z,99640.66
2019-02-27T03:41:36.176Z,99639.53
2019-02-27T03:45:09.991Z,99626.94
2019-02-27T03:48:35.259Z,99630.24
2019-02-27T03:51:48.061Z,99622.96
2019-02-27T03:54:59.337Z,99617.97
2019-02-27T03:58:30.643Z,99612.73
2019-02-27T04:02:12.074Z,99624.38
2019-02-27T04:05:53.989Z,99628.23
2019-02-27T04:08:55.352Z,99636.29
2019-02-27T04:11:28.059Z,99628.45
2019-02-27T04:14:04.714Z,99620.63
2019-02-27T04:16:38.141Z,99618.33
2019-02-27T04:19:10.585Z,99620.98
2019-02-27T04:21:43.964Z,99624.15
2019-02-27T04:24:15.297Z,99625.28
2019-02-27T04:26:48.131Z,99631.05
2019-02-27T04:29:21.879Z,99632.23
2019-02-27T04:31:54.413Z,99633.64
2019-02-27T04:34:27.117Z,99638.37
2019-02-27T04:36:59.808Z,99635.16
2019-02-27T04:39:32.900Z,99633.28
2019-02-27T04:42:05.435Z,99637.63
2019-02-27T04:44:39.054Z,99632.86
2019-02-27T04:47:12.125Z,99625.23
2019-02-27T04:49:44.757Z,99629.91
2019-02-27T04:52:18.055Z,99627.98
2019-02-27T04:54:49.719Z,99625.42
2019-02-27T04:57:22.365Z,99623.41
2019-02-27T04:59:55.763Z,99625.38
2019-02-27T05:02:28.886Z,99630.94
2019-02-27T05:05:01.772Z,99621.44
2019-02-27T05:07:34.894Z,99622.25
2019-02-27T05:10:07.938Z,99617.80
2019-02-27T05:12:39.459Z,99622.15
2019-02-27T05:15:11.841Z,99624.42
2019-02-27T05:17:45.313Z,99630.28
2019-02-27T05:20:17.795Z,99633.23
2019-02-27T05:22:50.803Z,99635.11
2019-02-27T05:25:23.596Z,99632.41
2019-02-27T05:28:01.017Z,99629.17
2019-02-27T05:30:31.621Z,99635.45
2019-02-27T05:33:03.658Z,99637.47
2019-02-27T05:35:35.655Z,99639.90
2019-02-27T05:38:08.210Z,99637.00
2019-02-27T05:40:41.396Z,99633.91
2019-02-27T05:43:15.522Z,99646.03
2019-02-27T05:45:47.929Z,99644.42
2019-02-27T05:48:21.052Z,99650.23
2019-02-27T05:50:53.756Z,99644.91
2019-02-27T05:53:27.238Z,99649.45
2019-02-27T05:55:59.614Z,99647.67
2019-02-27T05:58:33.120Z,99650.28
2019-02-27T06:01:05.902Z,99653.66
2019-02-27T06:03:39.329Z,99657.47
2019-02-27T06:06:12.453Z,99642.83
2019-02-27T06:08:45.586Z,99641.97
2019-02-27T06:11:16.908Z,99639.41
2019-02-27T06:13:48.967Z,99641.56
2019-02-27T06:16:22.299Z,99645.25
2019-02-27T06:18:56.276Z,99649.59
2019-02-27T06:21:31.539Z,99644.91
2019-02-27T06:24:04.645Z,99642.59
2019-02-27T06:26:36.989Z,99643.80
2019-02-27T06:29:09.899Z,99644.95
2019-02-27T06:31:41.841Z,99640.22
2019-02-27T06:34:15.240Z,99637.09
2019-02-27T06:36:49.553Z,99634.38
2019-02-27T06:39:22.380Z,99637.81
2019-02-27T06:41:55.125Z,99637.61
2019-02-27T06:44:29.019Z,99646.78
2019-02-27T06:47:01.469Z,99638.48
2019-02-27T06:49:34.579Z,99639.31
2019-02-27T06:52:09.264Z,99639.92
2019-02-27T06:54:42.376Z,99639.75
2019-02-27T06:57:15.568Z,99637.52
2019-02-27T06:59:46.989Z,99631.88
2019-02-27T07:02:21.711Z,99629.77
2019-02-27T07:04:53.701Z,99635.84
2019-02-27T07:07:28.818Z,99638.97
2019-02-27T07:10:01.891Z,99628.25
2019-02-27T07:12:35.342Z,99633.30
2019-02-27T07:15:10.276Z,99636.77
2019-02-27T07:17:44.496Z,99638.20
2019-02-27T07:20:17.573Z,99635.91
2019-02-27T07:22:49.344Z,99633.94
2019-02-27T07:25:22.445Z,99628.44
2019-02-27T07:27:55.559Z,99621.73
2019-02-27T07:30:28.342Z,99623.41
2019-02-27T07:33:00.842Z,99624.63
2019-02-27T07:35:34.144Z,99622.16
2019-02-27T07:38:07.141Z,99621.13
2019-02-27T07:40:42.752Z,99617.33
2019-02-27T07:43:14.422Z,99616.38
2019-02-27T07:45:56.086Z,99617.63
2019-02-27T07:48:29.458Z,99619.51
2019-02-27T07:52:06.961Z,99615.20
2019-02-27T07:54:50.467Z,99612.58
2019-02-27T07:57:23.003Z,99617.89
2019-02-27T07:59:56.830Z,99617.28
2019-02-27T08:02:29.901Z,99621.66
2019-02-27T08:05:02.170Z,99622.99
2019-02-27T08:07:35.967Z,99627.52
2019-02-27T08:10:12.283Z,99624.73
2019-02-27T08:12:45.353Z,99626.52
2019-02-27T08:15:18.041Z,99620.13
2019-02-27T08:17:51.118Z,99619.45
2019-02-27T08:20:23.590Z,99622.91
2019-02-27T08:22:57.967Z,99620.98
2019-02-27T08:25:30.489Z,99621.56
2019-02-27T08:28:03.222Z,99616.20
2019-02-27T08:30:35.954Z,99613.23
2019-02-27T08:33:09.343Z,99611.73
2019-02-27T08:35:41.884Z,99612.11
2019-02-27T08:38:15.439Z,99603.63
2019-02-27T08:40:48.286Z,99610.03
2019-02-27T08:43:21.143Z,99599.35
2019-02-27T08:45:54.279Z,99592.35
2019-02-27T08:48:25.726Z,99592.05
2019-02-27T08:50:58.640Z,99593.48
2019-02-27T08:53:30.512Z,99582.15
2019-02-27T08:56:03.179Z,99589.02
2019-02-27T08:58:36.860Z,99577.95
2019-02-27T09:01:11.587Z,99573.87
2019-02-27T09:03:44.982Z,99569.46
2019-02-27T09:06:18.731Z,99578.88
2019-02-27T09:08:51.415Z,99574.63
2019-02-27T09:11:23.821Z,99569.44
2019-02-27T09:13:56.843Z,99564.78
2019-02-27T09:16:29.589Z,99560.40
2019-02-27T09:19:02.312Z,99554.23
2019-02-27T09:21:35.325Z,99552.28
2019-02-27T09:24:08.117Z,99549.80
2019-02-27T09:26:42.339Z,99548.64
2019-02-27T09:29:18.591Z,99542.77
2019-02-27T09:31:51.205Z,99544.66
2019-02-27T09:34:26.651Z,99540.03
2019-02-27T09:36:59.097Z,99536.47
2019-02-27T09:39:32.565Z,99533.14
2019-02-27T09:42:05.127Z,99521.67
2019-02-27T09:44:38.185Z,99523.03
2019-02-27T09:47:10.676Z,99520.10
2019-02-27T09:49:43.863Z,99512.65
2019-02-27T09:52:16.592Z,99510.61
2019-02-27T09:54:50.115Z,99511.67
2019-02-27T09:57:24.124Z,99519.05
2019-02-27T09:59:57.551Z,99519.59
2019-02-27T10:02:30.080Z,99520.45
2019-02-27T10:05:03.780Z,99505.63
2019-02-27T10:07:37.810Z,99500.83
2019-02-27T10:10:11.039Z,99497.32
2019-02-27T10:12:43.969Z,99495.25
2019-02-27T10:15:17.090Z,99480.02
2019-02-27T10:17:49.554Z,99485.50
2019-02-27T10:20:22.630Z,99475.03
2019-02-27T10:22:55.641Z,99464.70
2019-02-27T10:25:28.160Z,99463.41
2019-02-27T10:28:04.315Z,99454.63
2019-02-27T10:30:37.237Z,99457.87
2019-02-27T10:33:11.114Z,99450.22
2019-02-27T10:35:44.419Z,99444.88
2019-02-27T10:38:17.203Z,99448.06
2019-02-27T10:40:50.575Z,99441.95
2019-02-27T10:43:24.461Z,99438.98
2019-02-27T10:45:57.414Z,99441.66
2019-02-27T10:48:31.130Z,99435.09
2019-02-27T10:51:03.795Z,99423.20
2019-02-27T10:53:37.582Z,99426.16
2019-02-27T10:56:10.233Z,99417.85
2019-02-27T10:58:45.026Z,99402.28
2019-02-27T11:01:18.608Z,99397.50
2019-02-27T11:03:51.699Z,99394.55
2019-02-27T11:06:33.483Z,99390.11
2019-02-27T11:09:04.473Z,99392.47
2019-02-27T11:11:35.016Z,99379.52
2019-02-27T11:14:07.061Z,99379.53
2019-02-27T11:16:39.787Z,99376.17
2019-02-27T11:19:14.136Z,99371.75
2019-02-27T11:21:45.875Z,99372.71
2019-02-27T11:24:17.645Z,99366.67
2019-02-27T11:26:49.975Z,99364.83
2019-02-27T11:29:23.836Z,99357.73
2019-02-27T11:31:57.484Z,99348.73
2019-02-27T11:34:31.292Z,99350.33
2019-02-27T11:37:04.416Z,99344.84
2019-02-27T11:39:37.927Z,99326.22
2019-02-27T11:42:11.681Z,99328.22
2019-02-27T11:44:49.466Z,99320.52
2019-02-27T11:47:19.223Z,99310.39
2019-02-27T11:49:52.622Z,99305.88
2019-02-27T11:52:28.679Z,99298.70
2019-02-27T11:55:00.537Z,99300.99
2019-02-27T11:57:33.613Z,99299.33
2019-02-27T12:00:08.052Z,99303.05
2019-02-27T12:02:40.315Z,99281.69
2019-02-27T12:05:14.765Z,99287.67
2019-02-27T12:07:50.572Z,99284.31
2019-02-27T12:10:24.073Z,99272.73
2019-02-27T12:13:00.731Z,99272.47
2019-02-27T12:15:32.107Z,99268.52
2019-02-27T12:18:05.423Z,99266.23
2019-02-27T12:20:39.088Z,99255.59
2019-02-27T12:23:12.007Z,99255.27
2019-02-27T12:25:45.438Z,99248.23
2019-02-27T12:28:19.670Z,99236.67
2019-02-27T12:30:52.777Z,99238.11
2019-02-27T12:33:29.214Z,99229.02
2019-02-27T12:36:00.701Z,99214.56
2019-02-27T12:38:34.383Z,99216.10
2019-02-27T12:41:07.465Z,99221.80
2019-02-27T12:43:39.921Z,99204.52
2019-02-27T12:46:13.661Z,99205.45
2019-02-27T12:48:47.089Z,99193.02
2019-02-27T12:51:21.093Z,99195.77
2019-02-27T12:53:54.616Z,99198.17
2019-02-27T12:56:28.442Z,99187.50
2019-02-27T12:59:01.394Z,99179.84
2019-02-27T13:01:33.865Z,99178.49
2019-02-27T13:04:07.297Z,99177.19
2019-02-27T13:06:39.422Z,99172.04
2019-02-27T13:09:12.522Z,99170.31
2019-02-27T13:11:46.364Z,99168.74
2019-02-27T13:14:19.670Z,99164.66
2019-02-27T13:16:52.372Z,99156.27
2019-02-27T13:19:24.374Z,99155.70
2019-02-27T13:21:57.008Z,99148.95
2019-02-27T13:24:30.042Z,99144.80
2019-02-27T13:27:03.720Z,99147.85
2019-02-27T13:29:37.835Z,99141.08
2019-02-27T13:32:10.828Z,99142.73
2019-02-27T13:34:45.342Z,99149.00
2019-02-27T13:37:18.776Z,99141.91
2019-02-27T13:39:51.953Z,99131.70
2019-02-27T13:42:24.326Z,99131.68
2019-02-27T13:44:57.595Z,99138.97
2019-02-27T13:47:31.677Z,99137.13
2019-02-27T13:50:04.391Z,99128.16
2019-02-27T13:52:37.096Z,99130.45
2019-02-27T13:55:11.144Z,99126.30
2019-02-27T13:57:45.340Z,99127.39
2019-02-27T14:00:27.884Z,99121.91
2019-02-27T14:03:01.679Z,99119.10
2019-02-27T14:05:36.151Z,99123.73
2019-02-27T14:08:09.420Z,99117.65
2019-02-27T14:10:42.398Z,99111.83
2019-02-27T14:13:15.874Z,99108.16
2019-02-27T14:15:49.380Z,99100.11
2019-02-27T14:18:22.053Z,99096.98
2019-02-27T14:20:54.005Z,99092.95
2019-02-27T14:23:27.314Z,99095.02
2019-02-27T14:26:00.081Z,99089.37
2019-02-27T14:28:32.831Z,99079.92
2019-02-27T14:31:09.066Z,99074.84
2019-02-27T14:33:40.499Z,99074.06
2019-02-27T14:36:15.460Z,99071.89
2019-02-27T14:38:48.537Z,99061.41
2019-02-27T14:41:21.608Z,99059.11
2019-02-27T14:43:57.637Z,99054.72
2019-02-27T14:46:29.670Z,99064.26
2019-02-27T14:49:02.717Z,99063.97
2019-02-27T14:51:35.511Z,99060.82
2019-02-27T14:54:08.767Z,99046.58
2019-02-27T14:56:42.705Z,99048.30
2019-02-27T14:59:16.256Z,99046.73
2019-02-27T15:01:49.439Z,99038.78
2019-02-27T15:04:22.453Z,99033.12
2019-02-27T15:06:55.842Z,99033.86
2019-02-27T15:09:36.512Z,99017.63
2019-02-27T15:12:10.291Z,99026.19
2019-02-27T15:14:43.083Z,99022.12
2019-02-27T15:17:15.887Z,99007.86
2019-02-27T15:19:47.728Z,99005.90
2019-02-27T15:22:21.255Z,99003.52
2019-02-27T15:24:53.612Z,99001.23
2019-02-27T15:27:27.650Z,98995.40
2019-02-27T15:30:01.298Z,98993.73
2019-02-27T15:32:33.689Z,98989.86
2019-02-27T15:35:08.153Z,98982.08
2019-02-27T15:37:41.669Z,98982.08
2019-02-27T15:40:17.422Z,98977.91
2019-02-27T15:42:49.976Z,98968.80
2019-02-27T15:45:23.349Z,98958.35
2019-02-27T15:47:56.417Z,98957.39
2019-02-27T15:50:29.003Z,98962.16
2019-02-27T15:53:00.964Z,98961.06
2019-02-27T15:55:35.229Z,98964.19
2019-02-27T15:58:08.529Z,98964.33
2019-02-27T16:00:41.334Z,98970.64
2019-02-27T16:03:14.183Z,98963.59
2019-02-27T16:05:46.557Z,98960.36
2019-02-27T16:08:20.199Z,98954.33
2019-02-27T16:10:55.253Z,98955.27
2019-02-27T16:13:28.417Z,98951.02
2019-02-27T16:16:01.522Z,98948.67
2019-02-27T16:18:36.949Z,98954.25
2019-02-27T16:21:09.443Z,98952.78
2019-02-27T16:23:41.200Z,98952.39
2019-02-27T16:26:14.270Z,98952.39
2019-02-27T16:28:48.993Z,98951.24
2019-02-27T16:31:23.747Z,98950.83
2019-02-27T16:33:58.538Z,98947.70
2019-02-27T16:36:36.241Z,98947.70
2019-02-27T16:39:09.911Z,98945.04
2019-02-27T16:41:45.156Z,98943.72
2019-02-27T16:44:21.511Z,98942.88
2019-02-27T16:46:52.442Z,98947.02
2019-02-27T16:49:25.000Z,98952.43
2019-02-27T16:51:57.878Z,98955.30
2019-02-27T16:54:31.885Z,98953.58
2019-02-27T16:57:05.417Z,98950.48
2019-02-27T16:59:39.206Z,98948.48
2019-02-27T17:02:11.909Z,98947.73
2019-02-27T17:04:45.608Z,98947.26
2019-02-27T17:07:18.868Z,98946.06
2019-02-27T17:09:50.605Z,98951.70
2019-02-27T17:12:23.499Z,98951.53
2019-02-27T17:14:58.636Z,98952.58
2019-02-27T17:17:31.828Z,98946.50
2019-02-27T17:20:04.765Z,98952.60
2019-02-27T17:22:37.891Z,98945.55
2019-02-27T17:25:12.142Z,98947.28
2019-02-27T17:27:49.819Z,98949.47
2019-02-27T17:30:25.728Z,98946.86
2019-02-27T17:33:01.446Z,98946.13
2019-02-27T17:35:33.953Z,98949.46
2019-02-27T17:38:06.879Z,98945.41
2019-02-27T17:40:41.655Z,98939.36
2019-02-27T17:43:14.323Z,98938.70
2019-02-27T17:45:48.048Z,98933.66
2019-02-27T17:48:21.145Z,98935.05
2019-02-27T17:50:53.872Z,98936.58
2019-02-27T17:53:26.787Z,98936.90
2019-02-27T17:55:59.881Z,98930.08
2019-02-27T17:58:34.852Z,98927.69
2019-02-27T18:01:07.408Z,98923.45
2019-02-27T18:03:41.847Z,98922.70
2019-02-27T18:06:15.144Z,98920.92
2019-02-27T18:08:51.562Z,98912.11
2019-02-27T18:11:23.146Z,98916.88
2019-02-27T18:13:56.159Z,98908.64
2019-02-27T18:16:29.945Z,98904.42
2019-02-27T18:19:07.027Z,98906.34
2019-02-27T18:21:40.027Z,98904.84
2019-02-27T18:24:13.730Z,98905.48
2019-02-27T18:26:50.221Z,98907.67
2019-02-27T18:29:22.526Z,98907.70
2019-02-27T18:31:58.712Z,98910.61
2019-02-27T18:34:31.068Z,98904.86
2019-02-27T18:37:05.106Z,98900.17
2019-02-27T18:39:38.699Z,98910.58
2019-02-27T18:42:12.146Z,98901.92
2019-02-27T18:44:44.019Z,98899.74
2019-02-27T18:47:16.717Z,98897.59
2019-02-27T18:49:52.295Z,98894.63
2019-02-27T18:52:24.834Z,98898.00
2019-02-27T18:54:57.854Z,98897.03
2019-02-27T18:57:29.732Z,98901.64
2019-02-27T19:00:03.278Z,98895.00
2019-02-27T19:02:36.324Z,98891.15
2019-02-27T19:05:10.108Z,98890.91
2019-02-27T19:07:43.620Z,98887.78
2019-02-27T19:10:15.625Z,98893.13
2019-02-27T19:12:48.393Z,98895.33
2019-02-27T19:15:22.555Z,98893.58
2019-02-27T19:17:55.334Z,98894.11
2019-02-27T19:20:30.071Z,98902.92
2019-02-27T19:23:03.490Z,98884.84
2019-02-27T19:25:36.638Z,98887.91
2019-02-27T19:28:09.968Z,98882.73
2019-02-27T19:30:42.934Z,98879.36
2019-02-27T19:33:16.326Z,98874.41
2019-02-27T19:35:50.426Z,98878.33
2019-02-27T19:38:24.702Z,98877.83
2019-02-27T19:40:58.287Z,98875.45
2019-02-27T19:43:29.940Z,98870.45
2019-02-27T19:46:02.599Z,98870.16
2019-02-27T19:48:35.320Z,98873.48
2019-02-27T19:51:08.050Z,98872.27
2019-02-27T19:53:42.751Z,98874.05
2019-02-27T19:56:16.610Z,98869.00
2019-02-27T19:58:53.585Z,98873.86
2019-02-27T20:01:34.978Z,98866.33
2019-02-27T20:04:09.605Z,98869.57
2019-02-27T20:06:45.206Z,98863.56
2019-02-27T20:09:20.531Z,98867.20
2019-02-27T20:11:55.775Z,98867.35
2019-02-27T20:14:29.525Z,98859.65
2019-02-27T20:17:04.750Z,98859.98
2019-02-27T20:19:37.490Z,98859.69
2019-02-27T20:22:15.479Z,98858.21
2019-02-27T20:24:46.964Z,98861.99
2019-02-27T20:27:19.068Z,98857.03
2019-02-27T20:29:53.276Z,98859.20
2019-02-27T20:32:28.550Z,98860.25
2019-02-27T20:35:02.170Z,98852.49
2019-02-27T20:37:41.464Z,98843.98
2019-02-27T20:40:15.864Z,98842.67
2019-02-27T20:42:52.092Z,98832.16
2019-02-27T20:45:26.610Z,98828.41
2019-02-27T20:48:02.528Z,98825.92
2019-02-27T20:50:39.962Z,98821.91
2019-02-27T20:53:13.503Z,98815.91
2019-02-27T20:55:46.246Z,98813.56
2019-02-27T20:58:22.015Z,98817.70
2019-02-27T21:00:54.844Z,98807.23
2019-02-27T21:03:28.070Z,98812.63
2019-02-27T21:06:01.820Z,98808.30
2019-02-27T21:08:36.100Z,98798.95
2019-02-27T21:11:11.905Z,98801.75
2019-02-27T21:13:49.595Z,98801.97
2019-02-27T21:16:22.689Z,98788.86
2019-02-27T21:18:56.094Z,98791.48
2019-02-27T21:21:29.747Z,98792.80
2019-02-27T21:24:06.239Z,98780.41
2019-02-27T21:26:38.603Z,98778.95
2019-02-27T21:29:12.356Z,98773.30
2019-02-27T21:31:45.760Z,98770.31
2019-02-27T21:34:20.042Z,98762.27
2019-02-27T21:36:52.611Z,98761.54
2019-02-27T21:39:25.376Z,98755.53
2019-02-27T21:41:58.996Z,98758.74
2019-02-27T21:44:31.599Z,98752.38
2019-02-27T21:47:04.958Z,98749.17
2019-02-27T21:49:39.841Z,98750.13
2019-02-27T21:52:14.562Z,98754.59
2019-02-27T21:54:48.157Z,98749.83
2019-02-27T21:57:19.186Z,98748.98
2019-02-27T21:59:52.253Z,98743.01
2019-02-27T22:02:27.291Z,98740.75
2019-02-27T22:05:00.302Z,98740.94
2019-02-27T22:07:34.297Z,98740.63
2019-02-27T22:10:09.601Z,98740.63
2019-02-27T22:12:43.818Z,98736.79
2019-02-27T22:15:22.986Z,98730.23
2019-02-27T22:17:56.156Z,98732.09
2019-02-27T22:20:28.964Z,98727.70
2019-02-27T22:23:03.365Z,98723.69
2019-02-27T22:25:36.066Z,98731.14
2019-02-27T22:28:09.516Z,98731.91
2019-02-27T22:30:42.227Z,98729.73
2019-02-27T22:33:23.036Z,98731.89
2019-02-27T22:36:02.225Z,98724.20
2019-02-27T22:38:37.824Z,98724.17
2019-02-27T22:41:11.103Z,98724.56
2019-02-27T22:43:44.606Z,98724.83
2019-02-27T22:46:17.669Z,98723.98
2019-02-27T22:48:50.634Z,98721.98
2019-02-27T22:51:23.288Z,98714.02
2019-02-27T22:53:55.898Z,98714.03
2019-02-27T22:56:29.191Z,98715.34
2019-02-27T22:59:02.946Z,98719.53
2019-02-27T23:01:51.746Z,98715.83
2019-02-27T23:04:25.062Z,98718.95
2019-02-27T23:06:57.493Z,98718.81
2019-02-27T23:09:30.341Z,98716.45
2019-02-27T23:12:02.887Z,98717.82
2019-02-27T23:14:35.275Z,98715.64
2019-02-27T23:17:07.862Z,98712.05
2019-02-27T23:19:40.397Z,98705.86
2019-02-27T23:22:12.876Z,98707.62
2019-02-27T23:24:45.584Z,98697.06
2019-02-27T23:27:18.132Z,98694.42
2019-02-27T23:29:50.681Z,98694.57
2019-02-27T23:32:28.414Z,98686.78
2019-02-27T23:34:58.209Z,98687.06
2019-02-27T23:37:29.703Z,98678.73
2019-02-27T23:40:02.839Z,98677.34
2019-02-27T23:42:36.683Z,98676.86
2019-02-27T23:45:10.095Z,98672.82
2019-02-27T23:47:43.215Z,98671.85
2019-02-27T23:50:15.648Z,98666.87
2019-02-27T23:52:49.380Z,98663.16
2019-02-27T23:55:23.663Z,98659.37
2019-02-27T23:57:58.573Z,98659.53
